Time;durP1;ratioP1;P1;durP2;ratioP2;P2;SDS_P1;SDS_P2;PMS_P1;PMS_P2;Temp;Humidity;BMP_temperature;BMP_pressure;BME280_temperature;BME280_humidity;BME280_pressure;Samples;Min_cycle;Max_cycle;Signal;HPM_P1;HPM_P2
2021/04/13 00:02:27;;;;;;;0.52;0.52;;;0.20;99.90;;;;;;4967332;28;20210;-85
2021/04/13 00:04:58;;;;;;;0.60;0.60;;;0.20;99.90;;;;;;4973342;28;20237;-85
2021/04/13 00:07:28;;;;;;;0.60;0.60;;;0.20;99.90;;;;;;4973549;28;20221;-84
2021/04/13 00:09:56;;;;;;;0.60;0.60;;;0.60;99.90;;;;;;4973421;28;20203;-84
2021/04/13 00:12:26;;;;;;;0.57;0.57;;;0.20;99.90;;;;;;4973685;28;20210;-84
2021/04/13 00:14:57;;;;;;;0.60;0.60;;;0.10;99.90;;;;;;4973507;28;20211;-86
2021/04/13 00:17:29;;;;;;;0.60;0.60;;;0.10;99.90;;;;;;4973315;28;20214;-85
2021/04/13 00:20:00;;;;;;;0.60;0.60;;;0.00;99.90;;;;;;4973173;28;20214;-85
2021/04/13 00:22:28;;;;;;;0.60;0.60;;;0.00;99.90;;;;;;4973560;28;20206;-85
2021/04/13 00:24:55;;;;;;;0.60;0.60;;;0.00;99.90;;;;;;4972905;28;20753;-85
2021/04/13 00:27:23;;;;;;;0.60;0.60;;;-0.10;99.90;;;;;;4973705;28;20210;-85
2021/04/13 00:29:50;;;;;;;0.60;0.60;;;-0.20;99.90;;;;;;4973069;28;20211;-85
2021/04/13 00:32:22;;;;;;;0.60;0.60;;;-0.10;99.90;;;;;;4972795;28;20214;-85
2021/04/13 00:34:54;;;;;;;0.60;0.60;;;-0.10;99.90;;;;;;4973112;28;20297;-84
2021/04/13 00:37:24;;;;;;;0.60;0.60;;;-0.10;99.90;;;;;;4973263;28;20609;-84
2021/04/13 00:39:52;;;;;;;0.60;0.60;;;-0.10;99.90;;;;;;4973111;28;20261;-84
2021/04/13 00:42:26;;;;;;;0.60;0.60;;;-0.10;99.90;;;;;;4972880;28;20678;-86
2021/04/13 00:44:56;;;;;;;0.60;0.60;;;0.20;99.90;;;;;;4972984;28;20231;-86
2021/04/13 00:47:26;;;;;;;0.60;0.60;;;-0.10;99.90;;;;;;4973104;28;20206;-86
2021/04/13 00:49:56;;;;;;;0.60;0.60;;;-0.10;99.90;;;;;;4972663;28;20203;-85
2021/04/13 00:52:35;;;;;;;0.60;0.60;;;0.00;99.90;;;;;;4973164;28;20227;-86
2021/04/13 00:55:05;;;;;;;0.60;0.60;;;0.00;99.90;;;;;;4972315;28;20570;-86
2021/04/13 00:57:38;;;;;;;0.55;0.55;;;0.00;99.90;;;;;;4972569;28;20227;-85
2021/04/13 01:00:07;;;;;;;0.50;0.50;;;0.00;99.90;;;;;;4972621;28;20246;-85
2021/04/13 01:02:34;;;;;;;0.60;0.60;;;0.00;99.90;;;;;;4972247;28;20681;-84
2021/04/13 01:05:08;;;;;;;0.60;0.60;;;0.00;99.90;;;;;;4972168;28;20227;-85
2021/04/13 01:07:36;;;;;;;0.60;0.60;;;0.00;99.90;;;;;;4972504;28;20207;-85
2021/04/13 01:10:08;;;;;;;0.60;0.60;;;0.00;99.90;;;;;;4972228;28;20214;-84
2021/04/13 01:12:38;;;;;;;0.60;0.60;;;0.00;99.90;;;;;;4972424;28;20203;-85
2021/04/13 01:15:08;;;;;;;0.60;0.60;;;0.00;99.90;;;;;;4972814;28;20215;-86
2021/04/13 01:17:36;;;;;;;0.60;0.60;;;0.00;99.90;;;;;;4986453;28;20330;-85
2021/04/13 01:20:11;;;;;;;0.60;0.60;;;0.00;99.90;;;;;;4991423;28;20210;-85
2021/04/13 01:22:43;;;;;;;0.50;0.50;;;0.10;99.90;;;;;;4991502;28;20300;-85
2021/04/13 01:25:18;;;;;;;0.60;0.60;;;0.10;99.90;;;;;;4990952;28;20238;-85
2021/04/13 01:27:48;;;;;;;0.60;0.60;;;0.10;99.90;;;;;;4991143;28;20272;-84
2021/04/13 01:30:30;;;;;;;0.60;0.60;;;0.10;99.90;;;;;;4991348;28;20213;-84
2021/04/13 01:33:09;;;;;;;0.60;0.60;;;0.10;99.90;;;;;;4990694;28;20206;-84
2021/04/13 01:35:36;;;;;;;0.60;0.60;;;0.10;99.90;;;;;;4991433;28;20301;-85
2021/04/13 01:38:05;;;;;;;0.60;0.60;;;0.00;99.90;;;;;;4990821;28;20202;-85
2021/04/13 01:40:42;;;;;;;0.60;0.60;;;0.00;99.90;;;;;;4990827;28;20692;-84
2021/04/13 01:43:09;;;;;;;0.60;0.60;;;0.00;99.90;;;;;;4990892;28;20229;-86
2021/04/13 01:45:36;;;;;;;0.60;0.60;;;0.00;99.90;;;;;;4991068;28;20213;-85
2021/04/13 01:48:05;;;;;;;0.60;0.60;;;-0.10;99.90;;;;;;4990684;28;20229;-85
2021/04/13 01:50:36;;;;;;;0.60;0.60;;;0.00;99.90;;;;;;4991241;28;20213;-85
2021/04/13 01:53:08;;;;;;;0.60;0.60;;;0.00;99.90;;;;;;4990526;28;20210;-85
2021/04/13 01:55:36;;;;;;;0.60;0.60;;;0.00;99.90;;;;;;4991110;28;20241;-85
2021/04/13 01:58:16;;;;;;;0.52;0.52;;;-0.10;99.90;;;;;;4990664;28;20198;-85
2021/04/13 02:00:47;;;;;;;0.60;0.60;;;-0.10;99.90;;;;;;4990635;28;20740;-86
2021/04/13 02:03:17;;;;;;;0.60;0.60;;;-0.10;99.90;;;;;;4990430;28;20249;-85
2021/04/13 02:05:48;;;;;;;0.60;0.60;;;-0.10;99.90;;;;;;4990552;28;20435;-85
2021/04/13 02:08:22;;;;;;;0.60;0.60;;;-0.20;99.90;;;;;;4990443;28;20268;-85
2021/04/13 02:11:00;;;;;;;0.60;0.60;;;-0.20;99.90;;;;;;4990401;28;20221;-83
2021/04/13 02:13:31;;;;;;;0.60;0.60;;;0.00;99.90;;;;;;4990281;28;20241;-84
2021/04/13 02:16:03;;;;;;;0.60;0.60;;;-0.20;99.90;;;;;;4990148;28;20217;-84
2021/04/13 02:18:35;;;;;;;0.60;0.60;;;-0.20;99.90;;;;;;4990283;28;20206;-85
2021/04/13 02:21:04;;;;;;;0.60;0.60;;;-0.20;99.90;;;;;;4990049;28;20213;-84
2021/04/13 02:23:33;;;;;;;0.60;0.60;;;-0.20;99.90;;;;;;4989739;28;20225;-84
2021/04/13 02:26:01;;;;;;;0.60;0.60;;;-0.20;99.90;;;;;;4990095;28;20400;-84
2021/04/13 02:28:29;;;;;;;0.60;0.60;;;-0.10;99.90;;;;;;4990178;28;20206;-84
2021/04/13 02:30:58;;;;;;;0.60;0.60;;;-0.20;99.90;;;;;;4990001;28;20218;-85
2021/04/13 02:33:36;;;;;;;0.50;0.50;;;-0.20;99.90;;;;;;4990212;28;20296;-84
2021/04/13 02:36:10;;;;;;;0.60;0.60;;;-0.20;99.90;;;;;;4990444;28;20206;-84
2021/04/13 02:38:39;;;;;;;0.50;0.50;;;-0.20;99.90;;;;;;4990480;28;20244;-85
2021/04/13 02:41:14;;;;;;;0.60;0.60;;;-0.10;99.90;;;;;;4990280;28;20221;-87
2021/04/13 02:43:45;;;;;;;0.50;0.50;;;-0.10;99.90;;;;;;4989106;28;20321;-85
2021/04/13 02:46:15;;;;;;;0.50;0.50;;;0.00;99.90;;;;;;4990120;28;20202;-85
2021/04/13 02:48:49;;;;;;;0.60;0.60;;;0.00;99.90;;;;;;4990126;28;20214;-85
2021/04/13 02:51:18;;;;;;;0.60;0.60;;;0.00;99.90;;;;;;4989931;28;20243;-85
2021/04/13 02:53:49;;;;;;;0.60;0.60;;;0.00;99.90;;;;;;4990092;28;20213;-84
2021/04/13 02:56:20;;;;;;;0.60;0.60;;;0.00;99.90;;;;;;4990057;28;20210;-84
2021/04/13 02:58:57;;;;;;;0.60;0.60;;;0.00;99.90;;;;;;4989870;28;20574;-85
2021/04/13 03:01:24;;;;;;;0.60;0.60;;;0.00;99.90;;;;;;4990178;28;20673;-85
2021/04/13 03:03:52;;;;;;;0.50;0.50;;;0.00;99.90;;;;;;4990356;28;20237;-84
2021/04/13 03:06:20;;;;;;;0.60;0.60;;;0.00;99.90;;;;;;4990017;28;20589;-83
2021/04/13 03:08:48;;;;;;;0.60;0.60;;;-0.10;99.90;;;;;;4989665;28;20210;-84
2021/04/13 03:11:18;;;;;;;0.60;0.60;;;-0.10;99.90;;;;;;4989484;28;20272;-84
2021/04/13 03:13:46;;;;;;;0.60;0.60;;;-0.20;99.90;;;;;;4989435;28;20229;-84
2021/04/13 03:16:16;;;;;;;0.60;0.60;;;-0.20;99.90;;;;;;4986395;28;20245;-85
2021/04/13 03:18:45;;;;;;;0.60;0.60;;;-0.20;99.90;;;;;;4985914;28;20206;-84
2021/04/13 03:21:15;;;;;;;0.60;0.60;;;-0.20;99.90;;;;;;4989407;28;20264;-83
2021/04/13 03:23:43;;;;;;;0.60;0.60;;;-0.30;99.90;;;;;;4989163;28;20238;-83
2021/04/13 03:26:14;;;;;;;0.60;0.60;;;-0.20;99.90;;;;;;4989423;28;20217;-84
2021/04/13 03:28:44;;;;;;;0.60;0.60;;;-0.20;99.90;;;;;;4989415;28;20213;-83
2021/04/13 03:31:12;;;;;;;0.60;0.60;;;-0.20;99.90;;;;;;4989455;28;20674;-83
2021/04/13 03:33:39;;;;;;;0.50;0.50;;;-0.30;99.90;;;;;;4989833;28;20206;-86
2021/04/13 03:36:08;;;;;;;0.60;0.60;;;-0.30;99.90;;;;;;4997583;28;20309;-84
2021/04/13 03:38:37;;;;;;;0.60;0.60;;;-0.30;99.90;;;;;;4990258;28;20211;-84
2021/04/13 03:41:04;;;;;;;0.60;0.60;;;-0.30;99.90;;;;;;4984590;28;20210;-83
2021/04/13 03:43:32;;;;;;;0.60;0.60;;;-0.30;99.90;;;;;;4983962;28;20222;-83
2021/04/13 03:46:03;;;;;;;0.60;0.60;;;-0.30;99.90;;;;;;4986391;28;20292;-83
2021/04/13 03:48:32;;;;;;;0.50;0.50;;;-0.30;99.90;;;;;;4983695;28;20202;-83
2021/04/13 03:51:02;;;;;;;0.50;0.50;;;-0.30;99.90;;;;;;4984684;28;20662;-83
2021/04/13 03:53:32;;;;;;;0.60;0.60;;;-0.20;99.90;;;;;;4984475;28;20206;-84
2021/04/13 03:56:01;;;;;;;0.60;0.60;;;-0.20;99.90;;;;;;4987742;28;20206;-84
2021/04/13 03:58:35;;;;;;;0.55;0.55;;;-0.20;99.90;;;;;;4991769;28;20213;-84
2021/04/13 04:01:01;;;;;;;0.60;0.60;;;-0.10;99.90;;;;;;4988294;28;20214;-84
2021/04/13 04:03:33;;;;;;;0.60;0.60;;;-0.20;99.90;;;;;;4988182;28;20218;-83
2021/04/13 04:06:00;;;;;;;0.60;0.60;;;-0.10;99.90;;;;;;4988261;28;20301;-83
2021/04/13 04:08:31;;;;;;;0.60;0.60;;;0.00;99.90;;;;;;4993421;28;20210;-83
2021/04/13 04:10:59;;;;;;;0.60;0.60;;;0.10;99.90;;;;;;4993266;28;20207;-83
2021/04/13 04:13:29;;;;;;;0.60;0.60;;;0.20;99.90;;;;;;4993243;28;20199;-84
2021/04/13 04:16:17;;;;;;;0.50;0.50;;;0.30;99.90;;;;;;4992996;28;20210;-83
2021/04/13 04:18:45;;;;;;;0.60;0.60;;;0.30;99.90;;;;;;4993164;28;20707;-83
2021/04/13 04:21:32;;;;;;;0.60;0.60;;;0.30;99.90;;;;;;4992876;28;20211;-83
2021/04/13 04:24:02;;;;;;;0.60;0.60;;;0.40;99.90;;;;;;4992900;28;20542;-84
2021/04/13 04:26:32;;;;;;;0.60;0.60;;;0.40;99.90;;;;;;4995561;28;20202;-85
2021/04/13 04:29:16;;;;;;;0.50;0.50;;;0.40;99.90;;;;;;4993611;28;20221;-88
2021/04/13 04:31:45;;;;;;;0.60;0.60;;;0.40;99.90;;;;;;4992832;28;20605;-83
2021/04/13 04:34:49;;;;;;;0.60;0.60;;;0.40;99.90;;;;;;4992866;28;20241;-84
2021/04/13 04:37:31;;;;;;;0.60;0.60;;;0.40;99.90;;;;;;4992973;28;20272;-84
2021/04/13 04:40:17;;;;;;;0.50;0.50;;;0.40;99.90;;;;;;4992505;28;20581;-85
2021/04/13 04:42:53;;;;;;;0.60;0.60;;;0.40;99.90;;;;;;4993301;28;20210;-87
2021/04/13 04:45:33;;;;;;;0.60;0.60;;;0.40;99.90;;;;;;4992975;28;20261;-86
2021/04/13 04:48:17;;;;;;;0.60;0.60;;;0.50;99.90;;;;;;4995954;28;20283;-87
2021/04/13 04:50:43;;;;;;;0.50;0.50;;;0.80;99.90;;;;;;4993852;28;20198;-86
2021/04/13 04:53:09;;;;;;;0.60;0.60;;;0.50;99.90;;;;;;4992741;28;20222;-86
2021/04/13 04:55:35;;;;;;;0.60;0.60;;;0.50;99.90;;;;;;4993024;28;20210;-85
2021/04/13 04:58:02;;;;;;;0.50;0.50;;;0.50;99.90;;;;;;4992322;28;20229;-85
2021/04/13 05:00:28;;;;;;;0.60;0.60;;;0.50;99.90;;;;;;4992516;28;20207;-84
2021/04/13 05:02:54;;;;;;;0.60;0.60;;;0.50;99.90;;;;;;4992693;28;20202;-85
2021/04/13 05:05:21;;;;;;;0.60;0.60;;;0.50;99.90;;;;;;4992327;28;20222;-84
2021/04/13 05:07:47;;;;;;;0.60;0.60;;;0.50;99.90;;;;;;4991961;28;20256;-84
2021/04/13 05:10:14;;;;;;;0.60;0.60;;;0.50;99.90;;;;;;4992544;28;20210;-85
2021/04/13 05:12:41;;;;;;;0.60;0.60;;;0.50;99.90;;;;;;4992432;28;20206;-85
2021/04/13 05:15:08;;;;;;;0.60;0.60;;;1.00;99.90;;;;;;4997838;28;20210;-86
2021/04/13 05:17:35;;;;;;;0.57;0.57;;;0.50;99.90;;;;;;4988270;28;20239;-86
2021/04/13 05:20:01;;;;;;;0.60;0.60;;;0.50;99.90;;;;;;4992266;28;20210;-86
2021/04/13 05:22:28;;;;;;;0.60;0.60;;;0.50;99.90;;;;;;4990934;28;20195;-86
2021/04/13 05:24:54;;;;;;;0.50;0.50;;;0.60;99.90;;;;;;4991644;28;20325;-85
2021/04/13 05:27:20;;;;;;;0.60;0.60;;;0.60;99.90;;;;;;4990551;28;20724;-85
2021/04/13 05:29:46;;;;;;;0.57;0.57;;;0.70;99.90;;;;;;4991736;28;20210;-85
2021/04/13 05:32:12;;;;;;;0.60;0.60;;;0.70;99.90;;;;;;4991877;28;20214;-85
2021/04/13 05:34:39;;;;;;;0.60;0.60;;;1.60;99.90;;;;;;4991772;28;20695;-85
2021/04/13 05:37:06;;;;;;;0.60;0.60;;;1.10;99.90;;;;;;4991689;28;20608;-85
2021/04/13 05:39:35;;;;;;;0.60;0.60;;;1.90;99.90;;;;;;4991851;28;20214;-85
2021/04/13 05:42:02;;;;;;;0.60;0.60;;;2.20;99.90;;;;;;4991602;28;20692;-85
2021/04/13 05:44:28;;;;;;;0.60;0.60;;;1.90;99.90;;;;;;4991713;28;20222;-85
2021/04/13 05:46:55;;;;;;;0.60;0.60;;;1.60;99.90;;;;;;4991487;28;20207;-84
2021/04/13 05:49:21;;;;;;;0.60;0.60;;;1.70;99.90;;;;;;4991941;28;20210;-85
2021/04/13 05:51:47;;;;;;;0.60;0.60;;;1.50;99.90;;;;;;4991282;28;20836;-85
2021/04/13 05:54:13;;;;;;;0.60;0.60;;;1.40;99.90;;;;;;4991379;28;20198;-85
2021/04/13 05:56:43;;;;;;;0.60;0.60;;;1.50;99.90;;;;;;4991327;28;20210;-84
2021/04/13 05:59:13;;;;;;;0.60;0.60;;;1.70;99.90;;;;;;4991668;28;20218;-85
2021/04/13 06:01:40;;;;;;;0.50;0.50;;;1.70;99.90;;;;;;4991281;28;20206;-84
2021/04/13 06:04:11;;;;;;;0.60;0.60;;;2.20;99.90;;;;;;4991147;28;20732;-85
2021/04/13 06:06:37;;;;;;;0.52;0.52;;;2.40;99.90;;;;;;4991264;28;20221;-85
2021/04/13 06:09:04;;;;;;;0.60;0.60;;;2.30;99.90;;;;;;4991369;28;20217;-86
2021/04/13 06:11:31;;;;;;;0.57;0.57;;;2.10;99.90;;;;;;4991692;28;20587;-87
2021/04/13 06:14:00;;;;;;;0.50;0.50;;;1.90;99.90;;;;;;4993705;28;20206;-85
2021/04/13 06:16:34;;;;;;;0.60;0.60;;;1.90;99.90;;;;;;4997917;28;20216;-90
2021/04/13 06:19:01;;;;;;;0.50;0.50;;;2.50;99.90;;;;;;4986127;28;20267;-86
2021/04/13 06:21:27;;;;;;;0.60;0.60;;;2.10;99.90;;;;;;4991561;28;20198;-85
2021/04/13 06:23:54;;;;;;;0.50;0.50;;;2.00;99.90;;;;;;4990325;28;20234;-84
2021/04/13 06:26:20;;;;;;;0.60;0.60;;;2.00;99.90;;;;;;4992025;28;20212;-87
2021/04/13 06:28:46;;;;;;;0.50;0.50;;;2.10;99.90;;;;;;4994234;28;20199;-87
2021/04/13 06:31:14;;;;;;;0.60;0.60;;;2.10;99.90;;;;;;4994118;28;20202;-87
2021/04/13 06:33:40;;;;;;;0.60;0.60;;;2.30;99.90;;;;;;4991675;28;20210;-81
2021/04/13 06:36:08;;;;;;;0.52;0.52;;;2.40;99.90;;;;;;4992458;28;20697;-87
2021/04/13 06:38:37;;;;;;;0.57;0.57;;;2.40;99.90;;;;;;4991534;28;20265;-84
2021/04/13 06:41:37;;;;;;;0.60;0.60;;;2.50;99.90;;;;;;4990889;28;20210;-81
2021/04/13 06:44:27;;;;;;;0.60;0.60;;;2.60;99.90;;;;;;4977853;28;20333;-87
2021/04/13 06:47:01;;;;;;;0.50;0.50;;;2.70;99.90;;;;;;4990272;28;20210;-82
2021/04/13 06:49:38;;;;;;;0.50;0.50;;;2.80;99.90;;;;;;4987903;28;20264;-84
2021/04/13 06:52:10;;;;;;;0.57;0.57;;;2.70;99.90;;;;;;4988360;28;20222;-81
2021/04/13 06:54:42;;;;;;;0.60;0.60;;;3.10;99.90;;;;;;4987599;28;20198;-86
2021/04/13 06:57:22;;;;;;;0.55;0.55;;;2.90;99.90;;;;;;4990095;28;20214;-82
2021/04/13 07:00:13;;;;;;;0.50;0.50;;;2.90;99.90;;;;;;4989452;28;20206;-83
2021/04/13 07:02:50;;;;;;;0.60;0.60;;;3.00;99.90;;;;;;4990338;28;20693;-83
2021/04/13 07:05:20;;;;;;;0.60;0.60;;;2.80;99.90;;;;;;4990217;28;20230;-82
2021/04/13 07:07:52;;;;;;;0.60;0.60;;;3.10;99.90;;;;;;4970126;28;20215;-85
2021/04/13 07:10:23;;;;;;;0.60;0.60;;;3.30;99.90;;;;;;4971051;28;20265;-85
2021/04/13 07:13:00;;;;;;;0.60;0.60;;;3.20;99.90;;;;;;4980088;28;20639;-83
2021/04/13 07:15:31;;;;;;;0.60;0.60;;;3.40;99.90;;;;;;4986819;28;20202;-87
2021/04/13 07:18:05;;;;;;;0.60;0.60;;;3.50;99.90;;;;;;4982196;28;20229;-88
2021/04/13 07:20:35;;;;;;;0.52;0.52;;;3.80;99.90;;;;;;4989884;28;20669;-85
2021/04/13 07:23:06;;;;;;;0.50;0.50;;;3.20;99.90;;;;;;4976812;28;20198;-84
2021/04/13 07:25:37;;;;;;;0.60;0.60;;;4.10;99.90;;;;;;4990122;28;20249;-84
2021/04/13 07:28:07;;;;;;;0.55;0.55;;;4.10;99.90;;;;;;4989572;28;20579;-84
2021/04/13 07:30:39;;;;;;;0.60;0.60;;;4.10;99.90;;;;;;4977825;28;20194;-84
2021/04/13 07:33:45;;;;;;;0.60;0.60;;;4.10;99.90;;;;;;4997950;28;20213;-86
2021/04/13 07:36:20;;;;;;;0.60;0.60;;;4.40;99.90;;;;;;4991717;28;20205;-85
2021/04/13 07:38:49;;;;;;;0.55;0.55;;;3.90;99.90;;;;;;4999641;28;20217;-86
2021/04/13 07:41:25;;;;;;;0.60;0.60;;;3.30;99.90;;;;;;4999057;28;20277;-86
2021/04/13 07:44:01;;;;;;;0.60;0.60;;;4.30;99.90;;;;;;4997318;28;20280;-87
2021/04/13 07:46:41;;;;;;;0.50;0.50;;;4.10;99.90;;;;;;5005073;28;20210;-87
2021/04/13 07:49:20;;;;;;;0.60;0.60;;;4.10;99.90;;;;;;5003412;28;20896;-86
2021/04/13 07:52:46;;;;;;;;;;;;;;;;;;;;;
2021/04/13 07:55:56;;;;;;;;;;;;;;;;;;;;;
2021/04/13 08:22:52;;;;;;;0.60;0.60;;;5.10;99.90;;;;;;5006304;28;20210;-87
2021/04/13 08:25:47;;;;;;;0.60;0.60;;;4.70;99.90;;;;;;4992318;28;20764;-87
2021/04/13 08:28:25;;;;;;;0.50;0.50;;;7.30;99.90;;;;;;4988424;28;20620;-84
2021/04/13 08:37:10;;;;;;;0.50;0.50;;;5.60;99.90;;;;;;4996252;28;20198;-82
2021/04/13 08:40:10;;;;;;;0.60;0.60;;;5.40;99.90;;;;;;4996757;28;20209;-85
2021/04/13 08:42:46;;;;;;;0.60;0.60;;;5.30;99.90;;;;;;4982232;28;20218;-84
2021/04/13 08:45:19;;;;;;;0.60;0.60;;;5.40;99.90;;;;;;5001380;28;20227;-84
2021/04/13 08:47:52;;;;;;;0.60;0.60;;;6.10;99.90;;;;;;4986918;28;20206;-84
2021/04/13 08:50:37;;;;;;;0.60;0.60;;;6.60;99.90;;;;;;4987682;28;20290;-84
2021/04/13 08:53:06;;;;;;;0.60;0.60;;;5.90;99.90;;;;;;4978978;28;20215;-84
2021/04/13 08:55:44;;;;;;;0.60;0.60;;;5.30;99.90;;;;;;4972786;28;20306;-85
2021/04/13 08:58:30;;;;;;;0.50;0.50;;;6.00;99.90;;;;;;4977441;28;20285;-84
2021/04/13 09:00:57;;;;;;;0.57;0.57;;;6.50;99.90;;;;;;4978299;28;20207;-84
2021/04/13 09:03:26;;;;;;;0.50;0.50;;;4.70;99.90;;;;;;4978141;28;20299;-84
2021/04/13 09:06:10;;;;;;;0.60;0.60;;;8.10;99.90;;;;;;4974472;28;20277;-84
2021/04/13 09:08:49;;;;;;;0.57;0.57;;;5.80;99.90;;;;;;4981392;28;20214;-85
2021/04/13 09:11:21;;;;;;;0.60;0.60;;;6.30;99.90;;;;;;4982384;28;20263;-85
2021/04/13 09:14:02;;;;;;;0.50;0.50;;;5.90;99.90;;;;;;4984033;28;20209;-84
2021/04/13 09:17:04;;;;;;;0.60;0.60;;;5.80;99.90;;;;;;4985428;28;20223;-84
2021/04/13 09:19:34;;;;;;;0.60;0.60;;;8.80;99.90;;;;;;4976458;28;20210;-85
2021/04/13 09:22:15;;;;;;;0.60;0.60;;;8.30;99.90;;;;;;4984455;28;20271;-84
2021/04/13 09:24:45;;;;;;;0.60;0.60;;;4.40;99.90;;;;;;4970336;28;20242;-84
2021/04/13 09:27:38;;;;;;;0.60;0.60;;;6.80;99.90;;;;;;4983107;28;20217;-84
2021/04/13 09:30:29;;;;;;;0.60;0.60;;;7.90;99.90;;;;;;4989284;28;20346;-85
2021/04/13 09:33:06;;;;;;;0.60;0.60;;;5.80;99.90;;;;;;4989012;28;20282;-84
2021/04/13 09:35:58;;;;;;;0.60;0.60;;;8.50;99.90;;;;;;4988481;28;20213;-84
2021/04/13 09:39:16;;;;;;;;;;;;;;;;;;;;;
2021/04/13 09:42:10;;;;;;;0.50;0.50;;;6.40;99.90;;;;;;4985081;28;20207;-84
2021/04/13 09:44:48;;;;;;;0.60;0.60;;;6.40;99.90;;;;;;4989387;28;20249;-85
2021/04/13 09:47:42;;;;;;;0.60;0.60;;;5.40;99.90;;;;;;4985640;28;20213;-85
2021/04/13 09:50:22;;;;;;;0.60;0.60;;;6.40;99.90;;;;;;4978567;28;20238;-84
2021/04/13 09:53:18;;;;;;;0.60;0.60;;;7.80;99.90;;;;;;4988783;28;20231;-85
2021/04/13 09:58:54;;;;;;;0.60;0.60;;;7.40;99.90;;;;;;5142900;22;20276;-84
2021/04/13 10:01:48;;;;;;;0.60;0.60;;;7.00;99.90;;;;;;5025271;28;20241;-84
2021/04/13 10:04:44;;;;;;;0.60;0.60;;;5.60;99.90;;;;;;5029646;28;20316;-84
2021/04/13 10:07:24;;;;;;;0.60;0.60;;;8.20;99.90;;;;;;5021126;28;20209;-85
2021/04/13 10:09:52;;;;;;;0.50;0.50;;;7.40;99.90;;;;;;5025212;28;20220;-84
2021/04/13 10:13:00;;;;;;;0.60;0.60;;;7.00;99.90;;;;;;5021662;28;20209;-85
2021/04/13 10:15:59;;;;;;;0.60;0.60;;;7.30;99.90;;;;;;5005050;28;20212;-86
2021/04/13 10:18:57;;;;;;;0.57;0.57;;;7.90;99.90;;;;;;4988264;23;20262;-87
2021/04/13 10:22:12;;;;;;;0.60;0.60;;;7.80;99.90;;;;;;4986927;28;20194;-86
2021/04/13 10:25:03;;;;;;;0.60;0.60;;;7.90;99.90;;;;;;4969850;28;20710;-87
2021/04/13 10:28:07;;;;;;;0.60;0.60;;;7.50;99.90;;;;;;4972529;28;20211;-86
2021/04/13 10:31:06;;;;;;;0.60;0.60;;;7.40;99.90;;;;;;4978455;28;20580;-84
2021/04/13 10:34:03;;;;;;;0.60;0.60;;;7.60;99.90;;;;;;4975203;28;20225;-86
2021/04/13 10:37:06;;;;;;;0.60;0.60;;;7.70;99.90;;;;;;4985000;28;20274;-86
2021/04/13 10:39:43;;;;;;;0.60;0.60;;;7.50;99.90;;;;;;5361157;22;20242;-82
2021/04/13 10:42:59;;;;;;;0.60;0.60;;;7.70;99.90;;;;;;4997142;28;20216;-87
2021/04/13 10:45:48;;;;;;;0.60;0.60;;;8.40;99.90;;;;;;4990122;28;20229;-86
2021/04/13 10:48:57;;;;;;;0.60;0.60;;;8.40;99.90;;;;;;4991010;28;20264;-86
2021/04/13 10:51:55;;;;;;;0.60;0.60;;;8.70;99.90;;;;;;4998652;28;20229;-86
2021/04/13 11:00:39;;;;;;;0.55;0.55;;;8.00;99.90;;;;;;5004962;28;20246;-86
2021/04/13 11:03:43;;;;;;;0.60;0.60;;;8.20;99.90;;;;;;4992264;28;20233;-87
2021/04/13 11:06:26;;;;;;;0.60;0.60;;;8.10;99.90;;;;;;4992568;28;20290;-87
2021/04/13 11:09:08;;;;;;;0.60;0.60;;;7.10;99.90;;;;;;4999920;28;20209;-87
2021/04/13 11:11:50;;;;;;;0.60;0.60;;;7.70;99.90;;;;;;4988907;28;20286;-87
2021/04/13 11:15:00;;;;;;;0.60;0.60;;;7.30;99.90;;;;;;4991713;28;20301;-86
2021/04/13 11:18:01;;;;;;;0.60;0.60;;;5.70;99.90;;;;;;4991879;28;20727;-86
2021/04/13 11:20:49;;;;;;;0.60;0.60;;;5.30;99.90;;;;;;4989017;28;20213;-85
2021/04/13 11:23:52;;;;;;;0.60;0.60;;;5.80;99.90;;;;;;4989663;28;20217;-86
2021/04/13 11:26:50;;;;;;;0.60;0.60;;;5.10;99.90;;;;;;4989187;28;20210;-86
2021/04/13 11:29:39;;;;;;;0.60;0.60;;;4.80;99.90;;;;;;4989596;28;20276;-86
2021/04/13 11:32:39;;;;;;;0.60;0.60;;;4.90;99.90;;;;;;4990015;28;20257;-85
2021/04/13 11:35:19;;;;;;;0.60;0.60;;;4.90;99.90;;;;;;4978596;28;20206;-86
2021/04/13 11:37:57;;;;;;;0.60;0.60;;;5.00;99.90;;;;;;4989272;28;20240;-86
2021/04/13 11:40:43;;;;;;;0.60;0.60;;;5.30;99.90;;;;;;4989774;28;20206;-87
2021/04/13 11:43:13;;;;;;;0.60;0.60;;;5.70;99.90;;;;;;4989936;28;20646;-86
2021/04/13 11:45:49;;;;;;;0.60;0.60;;;6.00;99.90;;;;;;4989897;28;20237;-86
2021/04/13 11:48:24;;;;;;;0.50;0.50;;;6.00;99.90;;;;;;4989705;28;20202;-87
2021/04/13 11:51:00;;;;;;;0.60;0.60;;;6.10;99.90;;;;;;4990421;28;20305;-86
2021/04/13 11:53:36;;;;;;;0.60;0.60;;;6.50;99.90;;;;;;4989979;28;20566;-86
2021/04/13 11:56:04;;;;;;;0.60;0.60;;;7.10;99.90;;;;;;4990640;28;20221;-86
2021/04/13 11:58:33;;;;;;;0.60;0.60;;;7.50;99.90;;;;;;4989475;28;20709;-86
2021/04/13 12:01:34;;;;;;;0.60;0.60;;;7.90;99.90;;;;;;4990101;28;20270;-87
2021/04/13 12:04:05;;;;;;;0.60;0.60;;;8.30;99.90;;;;;;4989658;28;20591;-86
2021/04/13 12:07:06;;;;;;;0.55;0.55;;;8.10;99.90;;;;;;4988172;28;20203;-87
2021/04/13 12:09:45;;;;;;;0.60;0.60;;;8.30;99.90;;;;;;4992170;28;20216;-88
2021/04/13 12:13:00;;;;;;;0.60;0.60;;;10.80;99.90;;;;;;4990730;28;20206;-85
2021/04/13 12:15:59;;;;;;;0.60;0.60;;;8.90;99.90;;;;;;4933912;29;20624;-88
2021/04/13 12:19:09;;;;;;;0.60;0.60;;;8.90;99.90;;;;;;4906696;29;20280;-86
2021/04/13 12:22:02;;;;;;;0.60;0.60;;;7.70;99.90;;;;;;5012876;28;20213;-88
2021/04/13 12:24:55;;;;;;;0.60;0.60;;;7.20;99.90;;;;;;5011335;28;20244;-87
2021/04/13 12:28:02;;;;;;;0.60;0.60;;;8.00;99.90;;;;;;5014796;28;20201;-87
2021/04/13 12:30:58;;;;;;;0.60;0.60;;;7.60;99.90;;;;;;5013698;28;20199;-87
2021/04/13 12:34:03;;;;;;;0.60;0.60;;;7.80;99.90;;;;;;5013619;28;20209;-87
2021/04/13 12:36:54;;;;;;;0.50;0.50;;;7.30;99.90;;;;;;5011732;28;20196;-87
2021/04/13 12:39:52;;;;;;;0.60;0.60;;;7.60;99.90;;;;;;5011629;28;20273;-87
2021/04/13 12:42:55;;;;;;;0.60;0.60;;;6.60;99.90;;;;;;5012554;28;20200;-86
2021/04/13 12:45:47;;;;;;;0.60;0.60;;;6.70;99.90;;;;;;5015131;28;20221;-87
2021/04/13 12:52:13;;;;;;;0.60;0.60;;;10.20;99.90;;;;;;4906232;29;20261;-87
2021/04/13 12:58:20;;;;;;;0.60;0.60;;;9.20;99.90;;;;;;5014341;28;20221;-89
2021/04/13 13:01:10;;;;;;;0.60;0.60;;;9.60;99.90;;;;;;5009818;28;20217;-86
2021/04/13 13:03:39;;;;;;;0.60;0.60;;;8.40;99.90;;;;;;5007603;28;20213;-86
2021/04/13 13:06:24;;;;;;;0.60;0.60;;;9.40;99.90;;;;;;5002037;28;20226;-86
2021/04/13 13:09:00;;;;;;;0.60;0.60;;;9.40;99.90;;;;;;4995376;28;20206;-86
2021/04/13 13:11:28;;;;;;;0.60;0.60;;;10.50;99.90;;;;;;4996595;28;20217;-86
2021/04/13 13:13:56;;;;;;;0.60;0.60;;;10.50;99.90;;;;;;4996782;28;20583;-86
2021/04/13 13:16:24;;;;;;;0.60;0.60;;;9.00;99.90;;;;;;4995902;28;20214;-86
2021/04/13 13:18:57;;;;;;;0.60;0.60;;;9.40;99.90;;;;;;4995871;28;20206;-90
2021/04/13 13:21:27;;;;;;;0.60;0.60;;;9.70;99.90;;;;;;5004470;28;20190;-87
2021/04/13 13:23:59;;;;;;;0.60;0.60;;;9.60;99.90;;;;;;4994044;28;20238;-85
2021/04/13 13:26:32;;;;;;;0.60;0.60;;;9.70;99.90;;;;;;4992322;28;20265;-85
2021/04/13 13:28:58;;;;;;;0.60;0.60;;;8.70;99.90;;;;;;4991994;28;20210;-86
2021/04/13 13:31:27;;;;;;;0.60;0.60;;;8.50;99.90;;;;;;4990151;28;20214;-83
2021/04/13 13:33:56;;;;;;;0.55;0.55;;;8.00;99.90;;;;;;4987747;28;20959;-85
2021/04/13 13:36:24;;;;;;;0.60;0.60;;;7.40;99.90;;;;;;4988835;28;20669;-86
2021/04/13 13:38:52;;;;;;;0.60;0.60;;;7.00;99.90;;;;;;4994470;28;20218;-86
2021/04/13 13:41:24;;;;;;;0.60;0.60;;;6.80;99.90;;;;;;4989757;28;20213;-87
2021/04/13 13:43:50;;;;;;;0.60;0.60;;;8.00;99.90;;;;;;4974904;28;20290;-85
2021/04/13 13:46:40;;;;;;;0.60;0.60;;;7.80;99.90;;;;;;4973275;28;20226;-86
2021/04/13 13:49:26;;;;;;;0.55;0.55;;;8.40;99.90;;;;;;4971335;28;20222;-87
2021/04/13 13:52:01;;;;;;;0.60;0.60;;;8.90;99.90;;;;;;4984208;28;20218;-88
2021/04/13 13:54:30;;;;;;;0.60;0.60;;;11.70;99.90;;;;;;4976686;28;20238;-86
2021/04/13 13:56:56;;;;;;;0.60;0.60;;;8.60;99.90;;;;;;4975060;28;20207;-86
2021/04/13 13:59:41;;;;;;;0.60;0.60;;;9.10;99.90;;;;;;4972758;28;20235;-87
2021/04/13 14:02:18;;;;;;;0.50;0.50;;;11.20;99.90;;;;;;4972945;28;20215;-86
2021/04/13 14:04:46;;;;;;;0.60;0.60;;;9.30;99.90;;;;;;4972764;28;20249;-86
2021/04/13 14:07:27;;;;;;;0.60;0.60;;;9.10;99.90;;;;;;4972272;28;20214;-86
2021/04/13 14:10:09;;;;;;;0.60;0.60;;;9.20;99.90;;;;;;4973972;28;20629;-85
2021/04/13 14:12:46;;;;;;;;;;;;;;;;;;;;;
2021/04/13 14:15:42;;;;;;;;;;;;;;;;;;;;;
2021/04/13 14:18:28;;;;;;;0.60;0.60;;;9.40;99.90;;;;;;4986167;28;20210;-87
2021/04/13 14:21:08;;;;;;;0.60;0.60;;;9.60;99.90;;;;;;4988021;28;20215;-86
2021/04/13 14:23:38;;;;;;;0.60;0.60;;;8.80;99.90;;;;;;4990503;28;20294;-86
2021/04/13 14:26:28;;;;;;;0.60;0.60;;;8.70;99.90;;;;;;4991775;28;20371;-86
2021/04/13 14:29:35;;;;;;;;;;;;;;;;;;;;;
2021/04/13 14:32:24;;;;;;;0.60;0.60;;;9.20;99.90;;;;;;4972386;28;20221;-87
2021/04/13 14:35:12;;;;;;;0.60;0.60;;;9.50;99.90;;;;;;4984569;28;20206;-87
2021/04/13 14:37:47;;;;;;;0.57;0.57;;;11.30;99.90;;;;;;4984948;28;20206;-87
2021/04/13 14:40:29;;;;;;;0.50;0.50;;;9.10;99.90;;;;;;4991128;28;20217;-86
2021/04/13 14:43:06;;;;;;;;;;;;;;;;;;;;;